sensor_id;sensor_type;location;lat;lon;timestamp;temperature;humidity
66013;DHT22;52783;50.502;8.190;2023-11-22T00:02:02;4.20;99.90
66013;DHT22;52783;50.502;8.190;2023-11-22T00:04:28;4.10;99.90
66013;DHT22;52783;50.502;8.190;2023-11-22T00:06:53;4.10;99.90
66013;DHT22;52783;50.502;8.190;2023-11-22T00:09:19;4.00;99.90
66013;DHT22;52783;50.502;8.190;2023-11-22T00:11:48;4.00;99.90
66013;DHT22;52783;50.502;8.190;2023-11-22T00:14:14;4.00;99.90
66013;DHT22;52783;50.502;8.190;2023-11-22T00:16:40;4.00;99.90
66013;DHT22;52783;50.502;8.190;2023-11-22T00:19:06;4.00;99.90
66013;DHT22;52783;50.502;8.190;2023-11-22T00:21:32;4.10;99.90
66013;DHT22;52783;50.502;8.190;2023-11-22T00:23:57;4.10;99.90
66013;DHT22;52783;50.502;8.190;2023-11-22T00:26:23;4.20;99.90
66013;DHT22;52783;50.502;8.190;2023-11-22T00:28:49;4.20;99.90
66013;DHT22;52783;50.502;8.190;2023-11-22T00:31:15;4.30;99.90
66013;DHT22;52783;50.502;8.190;2023-11-22T00:33:40;4.30;99.90
66013;DHT22;52783;50.502;8.190;2023-11-22T00:36:06;4.30;99.90
66013;DHT22;52783;50.502;8.190;2023-11-22T00:38:33;4.30;99.90
66013;DHT22;52783;50.502;8.190;2023-11-22T00:41:01;4.30;99.90
66013;DHT22;52783;50.502;8.190;2023-11-22T00:43:27;4.30;99.90
66013;DHT22;52783;50.502;8.190;2023-11-22T00:45:53;4.40;99.90
66013;DHT22;52783;50.502;8.190;2023-11-22T00:48:19;4.40;99.90
66013;DHT22;52783;50.502;8.190;2023-11-22T00:50:44;4.50;99.90
66013;DHT22;52783;50.502;8.190;2023-11-22T00:53:10;4.40;99.90
66013;DHT22;52783;50.502;8.190;2023-11-22T00:55:35;4.40;99.90
66013;DHT22;52783;50.502;8.190;2023-11-22T00:58:01;4.50;99.90
66013;DHT22;52783;50.502;8.190;2023-11-22T01:00:30;4.60;99.90
66013;DHT22;52783;50.502;8.190;2023-11-22T01:02:55;4.60;99.90
66013;DHT22;52783;50.502;8.190;2023-11-22T01:05:21;4.60;99.90
66013;DHT22;52783;50.502;8.190;2023-11-22T01:07:48;4.60;99.90
66013;DHT22;52783;50.502;8.190;2023-11-22T01:10:14;4.60;99.90
66013;DHT22;52783;50.502;8.190;2023-11-22T01:12:40;4.50;99.90
66013;DHT22;52783;50.502;8.190;2023-11-22T01:15:07;4.50;99.90
66013;DHT22;52783;50.502;8.190;2023-11-22T01:17:34;4.50;99.90
66013;DHT22;52783;50.502;8.190;2023-11-22T01:20:00;4.60;99.90
66013;DHT22;52783;50.502;8.190;2023-11-22T01:22:25;4.50;99.90
66013;DHT22;52783;50.502;8.190;2023-11-22T01:24:51;4.50;99.90
66013;DHT22;52783;50.502;8.190;2023-11-22T01:27:16;4.60;99.90
66013;DHT22;52783;50.502;8.190;2023-11-22T01:29:42;4.60;99.90
66013;DHT22;52783;50.502;8.190;2023-11-22T01:32:08;4.50;99.90
66013;DHT22;52783;50.502;8.190;2023-11-22T01:34:36;4.50;99.90
66013;DHT22;52783;50.502;8.190;2023-11-22T01:37:03;4.60;99.90
66013;DHT22;52783;50.502;8.190;2023-11-22T01:39:28;4.50;99.90
66013;DHT22;52783;50.502;8.190;2023-11-22T01:41:54;4.50;99.90
66013;DHT22;52783;50.502;8.190;2023-11-22T01:44:20;4.50;99.90
66013;DHT22;52783;50.502;8.190;2023-11-22T01:46:45;4.50;99.90
66013;DHT22;52783;50.502;8.190;2023-11-22T01:49:11;4.50;99.90
66013;DHT22;52783;50.502;8.190;2023-11-22T01:51:38;4.50;99.90
66013;DHT22;52783;50.502;8.190;2023-11-22T01:54:06;4.50;99.90
66013;DHT22;52783;50.502;8.190;2023-11-22T01:56:35;4.60;99.90
66013;DHT22;52783;50.502;8.190;2023-11-22T01:59:01;4.60;99.90
66013;DHT22;52783;50.502;8.190;2023-11-22T02:01:27;4.50;99.90
66013;DHT22;52783;50.502;8.190;2023-11-22T02:03:53;4.50;99.90
66013;DHT22;52783;50.502;8.190;2023-11-22T02:06:19;4.50;99.90
66013;DHT22;52783;50.502;8.190;2023-11-22T02:08:46;4.50;99.90
66013;DHT22;52783;50.502;8.190;2023-11-22T02:11:12;4.40;99.90
66013;DHT22;52783;50.502;8.190;2023-11-22T02:13:38;4.40;99.90
66013;DHT22;52783;50.502;8.190;2023-11-22T02:16:03;4.40;99.90
66013;DHT22;52783;50.502;8.190;2023-11-22T02:18:29;4.40;99.90
66013;DHT22;52783;50.502;8.190;2023-11-22T02:20:56;4.30;99.90
66013;DHT22;52783;50.502;8.190;2023-11-22T02:23:21;4.40;99.90
66013;DHT22;52783;50.502;8.190;2023-11-22T02:25:47;4.50;99.90
66013;DHT22;52783;50.502;8.190;2023-11-22T02:28:13;4.40;99.90
66013;DHT22;52783;50.502;8.190;2023-11-22T02:30:39;4.30;99.90
66013;DHT22;52783;50.502;8.190;2023-11-22T02:33:04;4.30;99.90
66013;DHT22;52783;50.502;8.190;2023-11-22T02:35:30;4.40;99.90
66013;DHT22;52783;50.502;8.190;2023-11-22T02:37:59;4.30;99.90
66013;DHT22;52783;50.502;8.190;2023-11-22T02:40:25;4.30;99.90
66013;DHT22;52783;50.502;8.190;2023-11-22T02:42:53;4.20;99.90
66013;DHT22;52783;50.502;8.190;2023-11-22T02:45:20;4.10;99.90
66013;DHT22;52783;50.502;8.190;2023-11-22T02:47:48;4.00;99.90
66013;DHT22;52783;50.502;8.190;2023-11-22T02:50:15;3.90;99.90
66013;DHT22;52783;50.502;8.190;2023-11-22T02:52:41;3.80;99.90
66013;DHT22;52783;50.502;8.190;2023-11-22T02:55:07;3.80;99.90
66013;DHT22;52783;50.502;8.190;2023-11-22T02:57:38;3.80;99.90
66013;DHT22;52783;50.502;8.190;2023-11-22T03:00:05;3.70;99.90
66013;DHT22;52783;50.502;8.190;2023-11-22T03:02:32;3.70;99.90
66013;DHT22;52783;50.502;8.190;2023-11-22T03:04:58;3.60;99.90
66013;DHT22;52783;50.502;8.190;2023-11-22T03:07:26;3.60;99.90
66013;DHT22;52783;50.502;8.190;2023-11-22T03:09:52;3.50;99.90
66013;DHT22;52783;50.502;8.190;2023-11-22T03:12:18;3.60;99.90
66013;DHT22;52783;50.502;8.190;2023-11-22T03:14:48;3.60;99.90
66013;DHT22;52783;50.502;8.190;2023-11-22T03:17:17;3.40;99.90
66013;DHT22;52783;50.502;8.190;2023-11-22T03:19:43;3.40;99.90
66013;DHT22;52783;50.502;8.190;2023-11-22T03:22:10;3.50;99.90
66013;DHT22;52783;50.502;8.190;2023-11-22T03:24:36;3.50;99.90
66013;DHT22;52783;50.502;8.190;2023-11-22T03:27:02;3.40;99.90
66013;DHT22;52783;50.502;8.190;2023-11-22T03:29:29;3.40;99.90
66013;DHT22;52783;50.502;8.190;2023-11-22T03:31:54;3.30;99.90
66013;DHT22;52783;50.502;8.190;2023-11-22T03:34:20;3.20;99.90
66013;DHT22;52783;50.502;8.190;2023-11-22T03:36:46;3.20;99.90
66013;DHT22;52783;50.502;8.190;2023-11-22T03:39:12;3.10;99.90
66013;DHT22;52783;50.502;8.190;2023-11-22T03:41:40;3.00;99.90
66013;DHT22;52783;50.502;8.190;2023-11-22T03:44:05;2.90;99.90
66013;DHT22;52783;50.502;8.190;2023-11-22T03:46:34;2.90;99.90
66013;DHT22;52783;50.502;8.190;2023-11-22T03:49:01;2.70;99.90
66013;DHT22;52783;50.502;8.190;2023-11-22T03:51:28;2.80;99.90
66013;DHT22;52783;50.502;8.190;2023-11-22T03:53:53;2.80;99.90
66013;DHT22;52783;50.502;8.190;2023-11-22T03:56:19;2.70;99.90
66013;DHT22;52783;50.502;8.190;2023-11-22T03:58:44;2.60;99.90
66013;DHT22;52783;50.502;8.190;2023-11-22T04:01:10;2.60;99.90
66013;DHT22;52783;50.502;8.190;2023-11-22T04:03:35;2.60;99.90
66013;DHT22;52783;50.502;8.190;2023-11-22T04:06:01;2.60;99.90
66013;DHT22;52783;50.502;8.190;2023-11-22T04:08:27;2.50;99.90
66013;DHT22;52783;50.502;8.190;2023-11-22T04:10:53;2.50;99.90
66013;DHT22;52783;50.502;8.190;2023-11-22T04:13:18;2.40;99.90
66013;DHT22;52783;50.502;8.190;2023-11-22T04:15:44;2.50;99.90
66013;DHT22;52783;50.502;8.190;2023-11-22T04:18:10;2.40;99.90
66013;DHT22;52783;50.502;8.190;2023-11-22T04:20:35;2.40;99.90
66013;DHT22;52783;50.502;8.190;2023-11-22T04:23:01;2.40;99.90
66013;DHT22;52783;50.502;8.190;2023-11-22T04:25:26;2.30;99.90
66013;DHT22;52783;50.502;8.190;2023-11-22T04:27:52;2.40;99.90
66013;DHT22;52783;50.502;8.190;2023-11-22T04:30:18;2.40;99.90
66013;DHT22;52783;50.502;8.190;2023-11-22T04:32:43;2.30;99.90
66013;DHT22;52783;50.502;8.190;2023-11-22T04:35:13;2.40;99.90
66013;DHT22;52783;50.502;8.190;2023-11-22T04:37:38;2.30;99.90
66013;DHT22;52783;50.502;8.190;2023-11-22T04:40:04;2.20;99.90
66013;DHT22;52783;50.502;8.190;2023-11-22T04:42:34;2.20;99.90
66013;DHT22;52783;50.502;8.190;2023-11-22T04:45:00;2.20;99.90
66013;DHT22;52783;50.502;8.190;2023-11-22T04:47:26;2.20;99.90
66013;DHT22;52783;50.502;8.190;2023-11-22T04:49:51;2.20;99.90
66013;DHT22;52783;50.502;8.190;2023-11-22T04:52:17;2.20;99.90
66013;DHT22;52783;50.502;8.190;2023-11-22T04:54:42;2.20;99.90
66013;DHT22;52783;50.502;8.190;2023-11-22T04:57:08;2.20;99.90
66013;DHT22;52783;50.502;8.190;2023-11-22T04:59:33;2.20;99.90
66013;DHT22;52783;50.502;8.190;2023-11-22T05:01:59;2.20;99.90
66013;DHT22;52783;50.502;8.190;2023-11-22T05:04:24;2.10;99.90
66013;DHT22;52783;50.502;8.190;2023-11-22T05:06:53;2.10;99.90
66013;DHT22;52783;50.502;8.190;2023-11-22T05:09:18;2.10;99.90
66013;DHT22;52783;50.502;8.190;2023-11-22T05:11:44;2.10;99.90
66013;DHT22;52783;50.502;8.190;2023-11-22T05:14:12;2.10;99.90
66013;DHT22;52783;50.502;8.190;2023-11-22T05:16:38;2.10;99.90
66013;DHT22;52783;50.502;8.190;2023-11-22T05:19:04;2.10;99.90
66013;DHT22;52783;50.502;8.190;2023-11-22T05:21:31;2.10;99.90
66013;DHT22;52783;50.502;8.190;2023-11-22T05:23:57;2.10;99.90
66013;DHT22;52783;50.502;8.190;2023-11-22T05:26:23;2.00;99.90
66013;DHT22;52783;50.502;8.190;2023-11-22T05:28:48;2.10;99.90
66013;DHT22;52783;50.502;8.190;2023-11-22T05:31:14;2.10;99.90
66013;DHT22;52783;50.502;8.190;2023-11-22T05:33:40;2.00;99.90
66013;DHT22;52783;50.502;8.190;2023-11-22T05:36:06;2.00;99.90
66013;DHT22;52783;50.502;8.190;2023-11-22T05:38:32;2.10;99.90
66013;DHT22;52783;50.502;8.190;2023-11-22T05:41:01;2.00;99.90
66013;DHT22;52783;50.502;8.190;2023-11-22T05:43:26;1.90;99.90
66013;DHT22;52783;50.502;8.190;2023-11-22T05:45:55;1.90;99.90
66013;DHT22;52783;50.502;8.190;2023-11-22T05:48:21;1.80;99.90
66013;DHT22;52783;50.502;8.190;2023-11-22T05:50:47;1.80;99.90
66013;DHT22;52783;50.502;8.190;2023-11-22T05:53:13;1.80;99.90
66013;DHT22;52783;50.502;8.190;2023-11-22T05:55:45;1.80;99.90
66013;DHT22;52783;50.502;8.190;2023-11-22T05:58:10;1.80;99.90
66013;DHT22;52783;50.502;8.190;2023-11-22T06:00:36;1.70;99.90
66013;DHT22;52783;50.502;8.190;2023-11-22T06:03:03;1.70;99.90
66013;DHT22;52783;50.502;8.190;2023-11-22T06:05:28;1.70;99.90
66013;DHT22;52783;50.502;8.190;2023-11-22T06:07:54;1.70;99.90
66013;DHT22;52783;50.502;8.190;2023-11-22T06:10:19;1.70;99.90
66013;DHT22;52783;50.502;8.190;2023-11-22T06:12:45;1.70;99.90
66013;DHT22;52783;50.502;8.190;2023-11-22T06:15:10;1.70;99.90
66013;DHT22;52783;50.502;8.190;2023-11-22T06:17:36;1.70;99.90
66013;DHT22;52783;50.502;8.190;2023-11-22T06:20:02;1.70;99.90
66013;DHT22;52783;50.502;8.190;2023-11-22T06:22:28;1.70;99.90
66013;DHT22;52783;50.502;8.190;2023-11-22T06:24:54;1.70;99.90
66013;DHT22;52783;50.502;8.190;2023-11-22T06:27:19;1.70;99.90
66013;DHT22;52783;50.502;8.190;2023-11-22T06:29:46;1.50;99.90
66013;DHT22;52783;50.502;8.190;2023-11-22T06:32:12;1.40;99.90
66013;DHT22;52783;50.502;8.190;2023-11-22T06:34:37;1.30;99.90
66013;DHT22;52783;50.502;8.190;2023-11-22T06:37:03;1.30;99.90
66013;DHT22;52783;50.502;8.190;2023-11-22T06:39:29;1.30;99.90
66013;DHT22;52783;50.502;8.190;2023-11-22T06:41:55;1.30;99.90
66013;DHT22;52783;50.502;8.190;2023-11-22T06:44:20;1.30;99.90
66013;DHT22;52783;50.502;8.190;2023-11-22T06:46:46;1.30;99.90
66013;DHT22;52783;50.502;8.190;2023-11-22T06:49:11;1.20;99.90
66013;DHT22;52783;50.502;8.190;2023-11-22T06:51:37;1.20;99.90
66013;DHT22;52783;50.502;8.190;2023-11-22T06:54:03;1.00;99.90
66013;DHT22;52783;50.502;8.190;2023-11-22T06:56:29;0.90;99.90
66013;DHT22;52783;50.502;8.190;2023-11-22T06:58:54;1.00;99.90
66013;DHT22;52783;50.502;8.190;2023-11-22T07:01:23;1.00;99.90
66013;DHT22;52783;50.502;8.190;2023-11-22T07:03:51;1.00;99.90
66013;DHT22;52783;50.502;8.190;2023-11-22T07:06:17;1.00;99.90
66013;DHT22;52783;50.502;8.190;2023-11-22T07:08:44;1.10;99.90
66013;DHT22;52783;50.502;8.190;2023-11-22T07:11:11;1.10;99.90
66013;DHT22;52783;50.502;8.190;2023-11-22T07:13:36;1.20;99.90
66013;DHT22;52783;50.502;8.190;2023-11-22T07:16:05;1.10;99.90
66013;DHT22;52783;50.502;8.190;2023-11-22T07:18:33;1.10;99.90
66013;DHT22;52783;50.502;8.190;2023-11-22T07:20:59;1.20;99.90
66013;DHT22;52783;50.502;8.190;2023-11-22T07:23:25;1.30;99.90
66013;DHT22;52783;50.502;8.190;2023-11-22T07:25:54;1.50;99.90
66013;DHT22;52783;50.502;8.190;2023-11-22T07:28:20;1.60;99.90
66013;DHT22;52783;50.502;8.190;2023-11-22T07:30:45;1.50;99.90
66013;DHT22;52783;50.502;8.190;2023-11-22T07:33:14;1.50;99.90
66013;DHT22;52783;50.502;8.190;2023-11-22T07:35:40;1.50;99.90
66013;DHT22;52783;50.502;8.190;2023-11-22T07:38:06;1.50;99.90
66013;DHT22;52783;50.502;8.190;2023-11-22T07:40:34;1.50;99.90
66013;DHT22;52783;50.502;8.190;2023-11-22T07:43:00;1.60;99.90
66013;DHT22;52783;50.502;8.190;2023-11-22T07:45:28;1.80;99.90
66013;DHT22;52783;50.502;8.190;2023-11-22T07:47:53;1.80;99.90
66013;DHT22;52783;50.502;8.190;2023-11-22T07:50:21;2.00;99.90
66013;DHT22;52783;50.502;8.190;2023-11-22T07:52:49;2.10;99.90
66013;DHT22;52783;50.502;8.190;2023-11-22T07:55:16;2.10;99.90
66013;DHT22;52783;50.502;8.190;2023-11-22T07:57:43;2.00;99.90
66013;DHT22;52783;50.502;8.190;2023-11-22T08:00:09;2.20;99.90
66013;DHT22;52783;50.502;8.190;2023-11-22T08:02:37;2.20;99.90
66013;DHT22;52783;50.502;8.190;2023-11-22T08:05:05;2.50;99.90
66013;DHT22;52783;50.502;8.190;2023-11-22T08:07:36;2.50;99.90
66013;DHT22;52783;50.502;8.190;2023-11-22T08:10:08;2.50;99.90
66013;DHT22;52783;50.502;8.190;2023-11-22T08:12:47;2.40;99.90
66013;DHT22;52783;50.502;8.190;2023-11-22T08:15:16;2.30;99.90
66013;DHT22;52783;50.502;8.190;2023-11-22T08:17:43;2.20;99.90
66013;DHT22;52783;50.502;8.190;2023-11-22T08:20:09;2.30;99.90
66013;DHT22;52783;50.502;8.190;2023-11-22T08:22:39;2.40;99.90
66013;DHT22;52783;50.502;8.190;2023-11-22T08:25:06;2.30;99.90
66013;DHT22;52783;50.502;8.190;2023-11-22T08:27:34;2.50;99.90
66013;DHT22;52783;50.502;8.190;2023-11-22T08:29:59;2.50;99.90
66013;DHT22;52783;50.502;8.190;2023-11-22T08:32:33;2.50;99.90
66013;DHT22;52783;50.502;8.190;2023-11-22T08:34:59;2.30;99.90
66013;DHT22;52783;50.502;8.190;2023-11-22T08:37:24;2.60;99.90
66013;DHT22;52783;50.502;8.190;2023-11-22T08:39:50;2.30;99.90
66013;DHT22;52783;50.502;8.190;2023-11-22T08:42:16;2.20;99.90
66013;DHT22;52783;50.502;8.190;2023-11-22T08:44:41;2.20;99.90
66013;DHT22;52783;50.502;8.190;2023-11-22T08:47:07;2.40;99.90
66013;DHT22;52783;50.502;8.190;2023-11-22T08:49:34;2.20;99.90
66013;DHT22;52783;50.502;8.190;2023-11-22T08:51:59;2.40;99.90
66013;DHT22;52783;50.502;8.190;2023-11-22T08:54:26;2.00;99.90
66013;DHT22;52783;50.502;8.190;2023-11-22T08:56:55;2.00;99.90
66013;DHT22;52783;50.502;8.190;2023-11-22T08:59:23;2.00;99.90
66013;DHT22;52783;50.502;8.190;2023-11-22T09:01:49;1.70;99.90
66013;DHT22;52783;50.502;8.190;2023-11-22T09:04:14;1.80;99.90
66013;DHT22;52783;50.502;8.190;2023-11-22T09:06:41;1.90;99.90
66013;DHT22;52783;50.502;8.190;2023-11-22T09:09:07;1.80;99.90
66013;DHT22;52783;50.502;8.190;2023-11-22T09:11:33;1.80;99.90
66013;DHT22;52783;50.502;8.190;2023-11-22T09:14:00;2.10;99.90
66013;DHT22;52783;50.502;8.190;2023-11-22T09:16:34;1.90;99.90
66013;DHT22;52783;50.502;8.190;2023-11-22T09:19:00;2.10;99.90
66013;DHT22;52783;50.502;8.190;2023-11-22T09:21:26;2.20;99.90
66013;DHT22;52783;50.502;8.190;2023-11-22T09:23:51;2.20;99.90
66013;DHT22;52783;50.502;8.190;2023-11-22T09:26:17;2.00;99.90
66013;DHT22;52783;50.502;8.190;2023-11-22T09:28:42;1.90;99.90
66013;DHT22;52783;50.502;8.190;2023-11-22T09:31:08;1.90;99.90
66013;DHT22;52783;50.502;8.190;2023-11-22T09:33:34;1.80;99.90
66013;DHT22;52783;50.502;8.190;2023-11-22T09:35:59;2.10;99.90
66013;DHT22;52783;50.502;8.190;2023-11-22T09:38:25;2.20;99.90
66013;DHT22;52783;50.502;8.190;2023-11-22T09:40:50;2.20;99.90
66013;DHT22;52783;50.502;8.190;2023-11-22T09:43:18;2.20;99.90
66013;DHT22;52783;50.502;8.190;2023-11-22T09:45:46;2.00;99.90
66013;DHT22;52783;50.502;8.190;2023-11-22T09:51:04;2.10;99.90
66013;DHT22;52783;50.502;8.190;2023-11-22T09:53:43;2.30;99.90
66013;DHT22;52783;50.502;8.190;2023-11-22T09:56:11;2.30;99.90
66013;DHT22;52783;50.502;8.190;2023-11-22T09:58:41;2.00;99.90
66013;DHT22;52783;50.502;8.190;2023-11-22T10:01:11;1.90;99.90
66013;DHT22;52783;50.502;8.190;2023-11-22T10:03:39;1.90;99.90
66013;DHT22;52783;50.502;8.190;2023-11-22T10:06:05;2.10;99.90
66013;DHT22;52783;50.502;8.190;2023-11-22T10:08:31;2.30;99.90
66013;DHT22;52783;50.502;8.190;2023-11-22T10:10:58;2.40;99.90
66013;DHT22;52783;50.502;8.190;2023-11-22T10:13:25;2.60;99.90
66013;DHT22;52783;50.502;8.190;2023-11-22T10:15:51;2.60;99.90
66013;DHT22;52783;50.502;8.190;2023-11-22T10:18:18;2.60;99.90
66013;DHT22;52783;50.502;8.190;2023-11-22T10:20:45;3.00;99.90
66013;DHT22;52783;50.502;8.190;2023-11-22T10:23:13;3.20;99.90
66013;DHT22;52783;50.502;8.190;2023-11-22T10:25:49;3.30;99.90
66013;DHT22;52783;50.502;8.190;2023-11-22T10:28:21;3.10;99.90
66013;DHT22;52783;50.502;8.190;2023-11-22T10:30:50;2.60;99.90
66013;DHT22;52783;50.502;8.190;2023-11-22T10:33:17;2.70;99.90
66013;DHT22;52783;50.502;8.190;2023-11-22T10:35:47;2.70;99.90
66013;DHT22;52783;50.502;8.190;2023-11-22T10:38:17;2.60;99.90
66013;DHT22;52783;50.502;8.190;2023-11-22T10:40:43;2.60;99.90
66013;DHT22;52783;50.502;8.190;2023-11-22T10:43:11;2.70;99.90
66013;DHT22;52783;50.502;8.190;2023-11-22T10:45:37;2.80;99.90
66013;DHT22;52783;50.502;8.190;2023-11-22T10:48:04;2.70;99.90
66013;DHT22;52783;50.502;8.190;2023-11-22T10:50:31;2.80;99.90
66013;DHT22;52783;50.502;8.190;2023-11-22T10:52:57;2.80;99.90
66013;DHT22;52783;50.502;8.190;2023-11-22T10:55:31;2.90;99.90
66013;DHT22;52783;50.502;8.190;2023-11-22T10:58:02;2.80;99.90
66013;DHT22;52783;50.502;8.190;2023-11-22T11:00:27;2.80;99.90
66013;DHT22;52783;50.502;8.190;2023-11-22T11:02:59;2.90;99.90
66013;DHT22;52783;50.502;8.190;2023-11-22T11:05:27;2.90;99.90
66013;DHT22;52783;50.502;8.190;2023-11-22T11:08:01;2.90;99.90
66013;DHT22;52783;50.502;8.190;2023-11-22T11:10:28;3.10;99.90
66013;DHT22;52783;50.502;8.190;2023-11-22T11:12:56;3.10;99.90
66013;DHT22;52783;50.502;8.190;2023-11-22T11:15:22;3.20;99.90
66013;DHT22;52783;50.502;8.190;2023-11-22T11:17:49;2.90;99.90
66013;DHT22;52783;50.502;8.190;2023-11-22T11:20:18;3.40;99.90
66013;DHT22;52783;50.502;8.190;2023-11-22T11:22:47;3.30;99.90
66013;DHT22;52783;50.502;8.190;2023-11-22T11:25:16;3.30;99.90
66013;DHT22;52783;50.502;8.190;2023-11-22T11:27:44;3.30;99.90
66013;DHT22;52783;50.502;8.190;2023-11-22T11:30:48;3.20;99.90
66013;DHT22;52783;50.502;8.190;2023-11-22T11:33:18;3.10;99.90
66013;DHT22;52783;50.502;8.190;2023-11-22T11:35:49;3.40;99.90
66013;DHT22;52783;50.502;8.190;2023-11-22T11:38:19;3.40;99.90
66013;DHT22;52783;50.502;8.190;2023-11-22T11:40:48;3.50;99.90
66013;DHT22;52783;50.502;8.190;2023-11-22T11:43:15;3.50;99.90
66013;DHT22;52783;50.502;8.190;2023-11-22T11:45:42;3.90;99.90
66013;DHT22;52783;50.502;8.190;2023-11-22T11:48:16;4.10;99.90
66013;DHT22;52783;50.502;8.190;2023-11-22T11:50:42;4.20;99.90
66013;DHT22;52783;50.502;8.190;2023-11-22T11:53:09;3.60;99.90
66013;DHT22;52783;50.502;8.190;2023-11-22T11:55:38;3.60;99.90
66013;DHT22;52783;50.502;8.190;2023-11-22T11:58:07;3.60;99.90
66013;DHT22;52783;50.502;8.190;2023-11-22T12:00:35;3.60;99.90
66013;DHT22;52783;50.502;8.190;2023-11-22T12:03:06;3.70;99.90
66013;DHT22;52783;50.502;8.190;2023-11-22T12:05:31;3.70;99.90
66013;DHT22;52783;50.502;8.190;2023-11-22T12:07:57;3.30;99.90
66013;DHT22;52783;50.502;8.190;2023-11-22T12:10:22;3.60;99.90
66013;DHT22;52783;50.502;8.190;2023-11-22T12:12:49;3.90;99.90
66013;DHT22;52783;50.502;8.190;2023-11-22T12:15:15;4.00;99.90
66013;DHT22;52783;50.502;8.190;2023-11-22T12:17:41;4.00;99.90
66013;DHT22;52783;50.502;8.190;2023-11-22T12:20:14;3.80;99.90
66013;DHT22;52783;50.502;8.190;2023-11-22T12:22:41;3.90;99.90
66013;DHT22;52783;50.502;8.190;2023-11-22T12:25:07;4.00;99.90
66013;DHT22;52783;50.502;8.190;2023-11-22T12:27:33;4.00;99.90
66013;DHT22;52783;50.502;8.190;2023-11-22T12:29:58;4.10;99.90
66013;DHT22;52783;50.502;8.190;2023-11-22T12:32:25;4.10;99.90
66013;DHT22;52783;50.502;8.190;2023-11-22T12:34:51;3.90;99.90
66013;DHT22;52783;50.502;8.190;2023-11-22T12:37:20;3.90;99.90
66013;DHT22;52783;50.502;8.190;2023-11-22T12:39:47;3.90;99.90
66013;DHT22;52783;50.502;8.190;2023-11-22T12:42:13;4.10;99.90
66013;DHT22;52783;50.502;8.190;2023-11-22T12:44:52;4.20;99.90
66013;DHT22;52783;50.502;8.190;2023-11-22T12:47:33;4.20;99.90
66013;DHT22;52783;50.502;8.190;2023-11-22T12:50:03;4.10;99.90
66013;DHT22;52783;50.502;8.190;2023-11-22T12:52:32;4.20;99.90
66013;DHT22;52783;50.502;8.190;2023-11-22T12:54:58;4.30;99.90
66013;DHT22;52783;50.502;8.190;2023-11-22T12:57:24;4.10;99.90
66013;DHT22;52783;50.502;8.190;2023-11-22T12:59:51;4.30;99.90
66013;DHT22;52783;50.502;8.190;2023-11-22T13:02:16;4.10;99.90
66013;DHT22;52783;50.502;8.190;2023-11-22T13:04:43;4.00;99.90
66013;DHT22;52783;50.502;8.190;2023-11-22T13:07:11;3.90;99.90
66013;DHT22;52783;50.502;8.190;2023-11-22T13:09:36;3.90;99.90
66013;DHT22;52783;50.502;8.190;2023-11-22T13:12:02;4.10;99.90
66013;DHT22;52783;50.502;8.190;2023-11-22T13:14:28;4.20;99.90
66013;DHT22;52783;50.502;8.190;2023-11-22T13:17:03;4.20;99.90
66013;DHT22;52783;50.502;8.190;2023-11-22T13:19:29;4.30;99.90
66013;DHT22;52783;50.502;8.190;2023-11-22T13:21:55;4.10;99.90
66013;DHT22;52783;50.502;8.190;2023-11-22T13:24:20;4.10;99.90
66013;DHT22;52783;50.502;8.190;2023-11-22T13:26:46;4.10;99.90
66013;DHT22;52783;50.502;8.190;2023-11-22T13:29:11;4.30;99.90
66013;DHT22;52783;50.502;8.190;2023-11-22T13:31:37;4.40;99.90
66013;DHT22;52783;50.502;8.190;2023-11-22T13:34:02;4.40;99.90
66013;DHT22;52783;50.502;8.190;2023-11-22T13:36:28;4.50;99.90
66013;DHT22;52783;50.502;8.190;2023-11-22T13:38:53;4.50;99.90
66013;DHT22;52783;50.502;8.190;2023-11-22T13:41:20;4.60;99.90
66013;DHT22;52783;50.502;8.190;2023-11-22T13:43:46;4.40;99.90
66013;DHT22;52783;50.502;8.190;2023-11-22T13:46:14;4.50;99.90
66013;DHT22;52783;50.502;8.190;2023-11-22T13:48:40;4.40;99.90
66013;DHT22;52783;50.502;8.190;2023-11-22T13:51:06;4.50;99.90
66013;DHT22;52783;50.502;8.190;2023-11-22T13:53:33;4.40;99.90
66013;DHT22;52783;50.502;8.190;2023-11-22T13:56:02;4.50;99.90
66013;DHT22;52783;50.502;8.190;2023-11-22T13:58:33;4.40;99.90
66013;DHT22;52783;50.502;8.190;2023-11-22T14:00:59;4.30;99.90
66013;DHT22;52783;50.502;8.190;2023-11-22T14:03:24;4.30;99.90
66013;DHT22;52783;50.502;8.190;2023-11-22T14:05:50;4.00;99.90
66013;DHT22;52783;50.502;8.190;2023-11-22T14:08:15;4.20;99.90
66013;DHT22;52783;50.502;8.190;2023-11-22T14:10:41;4.20;99.90
66013;DHT22;52783;50.502;8.190;2023-11-22T14:13:06;4.20;99.90
66013;DHT22;52783;50.502;8.190;2023-11-22T14:15:34;4.30;99.90
66013;DHT22;52783;50.502;8.190;2023-11-22T14:17:59;4.30;99.90
66013;DHT22;52783;50.502;8.190;2023-11-22T14:20:25;4.20;99.90
66013;DHT22;52783;50.502;8.190;2023-11-22T14:22:51;4.20;99.90
66013;DHT22;52783;50.502;8.190;2023-11-22T14:25:17;4.30;99.90
66013;DHT22;52783;50.502;8.190;2023-11-22T14:27:45;4.20;99.90
66013;DHT22;52783;50.502;8.190;2023-11-22T14:30:12;4.30;99.90
66013;DHT22;52783;50.502;8.190;2023-11-22T14:32:42;4.30;99.90
66013;DHT22;52783;50.502;8.190;2023-11-22T14:35:08;4.30;99.90
66013;DHT22;52783;50.502;8.190;2023-11-22T14:37:34;4.30;99.90
66013;DHT22;52783;50.502;8.190;2023-11-22T14:40:01;4.30;99.90
66013;DHT22;52783;50.502;8.190;2023-11-22T14:42:29;4.20;99.90
66013;DHT22;52783;50.502;8.190;2023-11-22T14:44:55;4.10;99.90
66013;DHT22;52783;50.502;8.190;2023-11-22T14:47:20;4.10;99.90
66013;DHT22;52783;50.502;8.190;2023-11-22T14:49:51;4.00;99.90
66013;DHT22;52783;50.502;8.190;2023-11-22T14:52:17;3.90;99.90
66013;DHT22;52783;50.502;8.190;2023-11-22T14:54:44;3.90;99.90
66013;DHT22;52783;50.502;8.190;2023-11-22T14:57:10;3.80;99.90
66013;DHT22;52783;50.502;8.190;2023-11-22T14:59:38;3.80;99.90
66013;DHT22;52783;50.502;8.190;2023-11-22T15:02:04;3.70;99.90
66013;DHT22;52783;50.502;8.190;2023-11-22T15:04:35;3.70;99.90
66013;DHT22;52783;50.502;8.190;2023-11-22T15:07:02;3.60;99.90
66013;DHT22;52783;50.502;8.190;2023-11-22T15:09:28;3.60;99.90
66013;DHT22;52783;50.502;8.190;2023-11-22T15:11:54;3.50;99.90
66013;DHT22;52783;50.502;8.190;2023-11-22T15:14:20;3.40;99.90
66013;DHT22;52783;50.502;8.190;2023-11-22T15:16:47;3.40;99.90
66013;DHT22;52783;50.502;8.190;2023-11-22T15:19:13;3.40;99.90
66013;DHT22;52783;50.502;8.190;2023-11-22T15:21:38;3.40;99.90
66013;DHT22;52783;50.502;8.190;2023-11-22T15:24:04;3.40;99.90
66013;DHT22;52783;50.502;8.190;2023-11-22T15:26:30;3.50;99.90
66013;DHT22;52783;50.502;8.190;2023-11-22T15:28:56;3.50;99.90
66013;DHT22;52783;50.502;8.190;2023-11-22T15:31:21;3.50;99.90
66013;DHT22;52783;50.502;8.190;2023-11-22T15:33:48;3.50;99.90
66013;DHT22;52783;50.502;8.190;2023-11-22T15:36:14;3.40;99.90
66013;DHT22;52783;50.502;8.190;2023-11-22T15:38:40;3.40;99.90
66013;DHT22;52783;50.502;8.190;2023-11-22T15:41:05;3.30;99.90
66013;DHT22;52783;50.502;8.190;2023-11-22T15:43:34;3.20;99.90
66013;DHT22;52783;50.502;8.190;2023-11-22T15:45:59;3.20;99.90